Time;durP1;ratioP1;P1;durP2;ratioP2;P2;SDS_P1;SDS_P2;PMS_P1;PMS_P2;Temp;Humidity;BMP_temperature;BMP_pressure;BME280_temperature;BME280_humidity;BME280_pressure;Samples;Min_cycle;Max_cycle;Signal;HPM_P1;HPM_P2
2021/03/17 00:01:39;;;;;;;5.93;3.07;;;5.90;97.50;;;;;;4947684;28;20062;-86
2021/03/17 00:04:05;;;;;;;5.63;3.10;;;5.90;97.30;;;;;;5064977;28;20056;-85
2021/03/17 00:06:30;;;;;;;7.07;3.63;;;5.90;97.50;;;;;;5053769;28;20501;-86
2021/03/17 00:08:56;;;;;;;7.63;4.00;;;5.70;97.50;;;;;;5071259;28;20462;-86
2021/03/17 00:11:22;;;;;;;7.57;3.47;;;5.80;97.50;;;;;;5072037;28;20036;-86
2021/03/17 00:13:47;;;;;;;9.03;3.87;;;5.80;97.50;;;;;;5071742;28;20024;-86
2021/03/17 00:16:13;;;;;;;7.67;4.10;;;5.70;97.50;;;;;;5053807;28;20512;-86
2021/03/17 00:18:39;;;;;;;8.87;4.00;;;5.80;97.50;;;;;;5071993;28;20412;-86
2021/03/17 00:21:05;;;;;;;7.87;3.90;;;5.70;97.70;;;;;;5071198;28;20104;-86
2021/03/17 00:23:30;;;;;;;6.53;3.67;;;5.80;97.40;;;;;;5053600;28;20025;-87
2021/03/17 00:25:56;;;;;;;6.80;3.73;;;5.70;97.40;;;;;;5053837;28;20031;-86
2021/03/17 00:28:21;;;;;;;6.50;3.67;;;5.70;97.40;;;;;;5071550;28;20111;-85
2021/03/17 00:30:47;;;;;;;7.00;4.27;;;5.80;97.50;;;;;;5053274;28;20413;-87
2021/03/17 00:33:14;;;;;;;6.07;4.07;;;5.70;97.60;;;;;;5073782;28;20020;-86
2021/03/17 00:35:42;;;;;;;7.07;3.93;;;5.80;97.80;;;;;;5075004;28;20108;-87
2021/03/17 00:38:07;;;;;;;10.30;5.03;;;5.50;97.50;;;;;;5075085;28;20024;-86
2021/03/17 00:40:34;;;;;;;8.67;4.77;;;5.50;97.70;;;;;;5073059;28;20420;-87
2021/03/17 00:43:00;;;;;;;9.50;4.97;;;5.60;97.90;;;;;;5073673;28;20028;-86
2021/03/17 00:45:26;;;;;;;7.97;4.70;;;5.60;97.90;;;;;;5074881;28;20111;-86
2021/03/17 00:47:52;;;;;;;11.43;5.57;;;5.50;97.80;;;;;;5074937;28;20029;-86
2021/03/17 00:50:18;;;;;;;6.47;4.70;;;5.60;97.60;;;;;;5074541;28;20150;-86
2021/03/17 00:52:44;;;;;;;8.67;4.60;;;5.60;97.80;;;;;;5074747;28;20085;-86
2021/03/17 00:55:11;;;;;;;8.53;4.60;;;5.60;97.80;;;;;;5074835;28;20476;-86
2021/03/17 00:57:41;;;;;;;9.20;4.40;;;5.50;97.70;;;;;;5059128;28;20094;-87
2021/03/17 01:00:09;;;;;;;8.02;4.90;;;5.60;98.20;;;;;;5068544;28;20024;-86
2021/03/17 01:02:35;;;;;;;8.43;4.20;;;5.60;97.90;;;;;;5089418;28;20064;-87
2021/03/17 01:05:00;;;;;;;7.20;4.17;;;5.70;98.10;;;;;;5087894;28;20039;-87
2021/03/17 01:07:26;;;;;;;8.07;4.17;;;5.60;97.70;;;;;;5063658;28;20514;-86
2021/03/17 01:09:52;;;;;;;7.87;3.80;;;5.60;97.50;;;;;;5071676;28;20021;-86
2021/03/17 01:12:18;;;;;;;6.67;3.83;;;5.70;97.60;;;;;;5088994;28;20064;-86
2021/03/17 01:14:44;;;;;;;7.17;3.73;;;5.70;97.00;;;;;;5068630;23;20063;-82
2021/03/17 01:17:10;;;;;;;7.60;4.37;;;5.50;97.20;;;;;;5026892;28;20060;-83
2021/03/17 01:19:35;;;;;;;6.30;3.67;;;5.50;97.70;;;;;;5023328;28;20028;-82
2021/03/17 01:22:02;;;;;;;6.47;3.83;;;5.60;97.40;;;;;;5020719;28;20025;-82
2021/03/17 01:24:28;;;;;;;6.63;4.10;;;5.60;97.30;;;;;;5020509;28;20044;-82
2021/03/17 01:26:54;;;;;;;6.03;4.10;;;5.70;97.30;;;;;;5021214;28;20120;-82
2021/03/17 01:29:19;;;;;;;8.03;4.50;;;5.60;97.50;;;;;;5020077;28;20028;-82
2021/03/17 01:31:45;;;;;;;9.27;5.27;;;5.60;97.40;;;;;;5019982;28;20440;-82
2021/03/17 01:34:11;;;;;;;9.17;5.20;;;5.60;97.10;;;;;;5038481;28;20033;-82
2021/03/17 01:36:37;;;;;;;8.43;5.27;;;5.50;97.50;;;;;;5037273;28;20037;-82
2021/03/17 01:39:03;;;;;;;8.47;5.37;;;5.40;97.60;;;;;;5019435;28;20488;-83
2021/03/17 01:41:29;;;;;;;7.93;5.03;;;5.50;97.80;;;;;;5020891;28;20486;-82
2021/03/17 01:43:54;;;;;;;9.43;5.57;;;5.60;97.50;;;;;;5019694;28;20033;-83
2021/03/17 01:46:20;;;;;;;9.60;5.43;;;5.60;97.30;;;;;;5036283;28;20053;-82
2021/03/17 01:48:45;;;;;;;9.47;5.33;;;5.60;97.40;;;;;;5036443;28;20485;-83
2021/03/17 01:51:11;;;;;;;8.87;5.50;;;5.60;97.30;;;;;;5036409;28;20052;-82
2021/03/17 01:53:39;;;;;;;7.10;4.70;;;5.60;97.20;;;;;;5038688;28;20497;-83
2021/03/17 01:56:05;;;;;;;8.07;5.00;;;5.50;96.80;;;;;;5038648;28;20017;-83
2021/03/17 01:58:33;;;;;;;9.00;4.80;;;5.50;97.40;;;;;;5021137;28;20051;-83
2021/03/17 02:00:59;;;;;;;7.20;4.80;;;5.50;97.40;;;;;;5036460;28;20029;-83
2021/03/17 02:03:26;;;;;;;7.30;4.20;;;5.50;97.40;;;;;;5020757;28;20037;-83
2021/03/17 02:05:52;;;;;;;7.03;3.63;;;5.50;97.20;;;;;;5036823;28;20053;-83
2021/03/17 02:08:24;;;;;;;7.10;3.77;;;5.40;96.90;;;;;;5021547;28;20029;-83
2021/03/17 02:10:51;;;;;;;7.17;3.50;;;5.40;97.10;;;;;;5037730;28;20029;-82
2021/03/17 02:13:40;;;;;;;5.67;3.43;;;5.50;96.80;;;;;;5020413;28;20491;-83
2021/03/17 02:16:34;;;;;;;6.60;4.10;;;5.40;97.00;;;;;;5020602;28;20490;-82
2021/03/17 02:19:08;;;;;;;6.27;3.40;;;5.30;97.30;;;;;;5019475;28;20036;-82
2021/03/17 02:21:43;;;;;;;7.17;3.60;;;5.40;97.00;;;;;;5039450;28;20025;-83
2021/03/17 02:24:28;;;;;;;7.47;3.93;;;5.50;97.00;;;;;;5039363;28;20037;-83
2021/03/17 02:26:53;;;;;;;10.30;4.93;;;5.30;96.90;;;;;;5020251;28;20490;-83
2021/03/17 02:29:31;;;;;;;8.57;4.93;;;5.30;96.90;;;;;;5037903;28;20033;-83
2021/03/17 02:32:18;;;;;;;10.20;5.83;;;5.30;96.90;;;;;;5020615;28;20032;-82
2021/03/17 02:34:46;;;;;;;7.40;4.77;;;5.20;97.40;;;;;;5021096;28;20078;-82
2021/03/17 02:37:18;;;;;;;8.50;5.57;;;5.20;97.70;;;;;;5038152;28;20397;-82
2021/03/17 02:40:02;;;;;;;8.80;5.03;;;5.20;97.30;;;;;;5020206;28;20029;-82
2021/03/17 02:42:57;;;;;;;10.37;5.63;;;5.30;97.60;;;;;;5039672;28;20044;-83
2021/03/17 02:45:27;;;;;;;12.03;5.87;;;5.30;97.40;;;;;;5038646;28;20045;-82
2021/03/17 02:47:59;;;;;;;9.87;6.13;;;5.40;97.30;;;;;;5038675;28;20029;-83
2021/03/17 02:50:27;;;;;;;12.30;6.33;;;5.40;97.50;;;;;;5020299;28;20036;-82
2021/03/17 02:52:55;;;;;;;11.70;6.23;;;5.40;97.40;;;;;;5019878;28;20025;-83
2021/03/17 02:55:24;;;;;;;13.13;6.47;;;5.40;97.70;;;;;;5037620;28;20040;-83
2021/03/17 02:57:53;;;;;;;8.07;4.82;;;5.50;97.70;;;;;;5037802;28;20036;-82
2021/03/17 03:00:21;;;;;;;8.40;4.65;;;5.40;97.10;;;;;;5038925;28;20030;-83
2021/03/17 03:02:49;;;;;;;11.40;4.50;;;5.20;97.30;;;;;;5021246;28;20029;-82
2021/03/17 03:05:16;;;;;;;6.70;4.63;;;5.20;97.60;;;;;;5020941;28;20032;-82
2021/03/17 03:07:45;;;;;;;7.43;3.77;;;5.20;97.50;;;;;;5020280;28;20025;-82
2021/03/17 03:10:11;;;;;;;5.67;3.80;;;5.20;97.40;;;;;;5020389;28;20021;-82
2021/03/17 03:12:38;;;;;;;6.30;3.77;;;5.20;97.30;;;;;;5038191;28;20013;-82
2021/03/17 03:15:06;;;;;;;8.17;4.03;;;5.30;97.40;;;;;;5036778;28;20032;-82
2021/03/17 03:17:34;;;;;;;6.13;3.27;;;5.20;96.90;;;;;;5038601;28;20026;-82
2021/03/17 03:20:04;;;;;;;6.33;3.93;;;5.20;97.10;;;;;;5037359;28;20032;-83
2021/03/17 03:22:30;;;;;;;6.70;4.25;;;5.10;97.70;;;;;;5019739;28;20051;-84
2021/03/17 03:24:56;;;;;;;7.70;4.00;;;5.10;97.60;;;;;;5035717;28;20029;-83
2021/03/17 03:27:24;;;;;;;8.47;4.60;;;5.20;97.60;;;;;;5019899;28;20025;-83
2021/03/17 03:29:51;;;;;;;8.20;4.77;;;5.20;97.50;;;;;;5019061;28;20381;-82
2021/03/17 03:32:16;;;;;;;11.67;6.00;;;5.30;97.50;;;;;;5019712;28;20022;-83
2021/03/17 03:34:42;;;;;;;10.40;5.63;;;5.20;97.50;;;;;;5036864;28;20021;-82
2021/03/17 03:37:08;;;;;;;11.00;5.73;;;5.20;97.60;;;;;;5020377;28;20120;-83
2021/03/17 03:39:34;;;;;;;14.97;8.13;;;5.30;97.80;;;;;;5019456;28;20025;-82
2021/03/17 03:42:00;;;;;;;18.67;9.47;;;5.30;97.60;;;;;;5018964;28;20061;-82
2021/03/17 03:44:27;;;;;;;16.87;9.40;;;5.20;97.30;;;;;;5019238;28;20536;-83
2021/03/17 03:46:53;;;;;;;16.00;9.13;;;5.20;97.70;;;;;;5034573;28;20033;-82
2021/03/17 03:49:19;;;;;;;18.33;8.20;;;5.20;97.40;;;;;;5034752;28;20028;-82
2021/03/17 03:51:55;;;;;;;19.13;9.43;;;5.20;97.50;;;;;;5019423;28;20029;-82
2021/03/17 03:54:36;;;;;;;17.07;9.00;;;5.00;97.60;;;;;;5020058;28;20032;-82
2021/03/17 03:57:21;;;;;;;21.77;9.73;;;4.90;97.70;;;;;;5019582;28;20030;-82
2021/03/17 03:59:49;;;;;;;18.17;9.10;;;5.00;97.60;;;;;;5036329;28;20500;-82
2021/03/17 04:02:25;;;;;;;16.47;7.63;;;4.90;97.40;;;;;;5019993;28;20120;-82
2021/03/17 04:04:51;;;;;;;11.97;5.97;;;4.90;97.80;;;;;;5035854;28;20033;-82
2021/03/17 04:07:17;;;;;;;8.93;4.50;;;5.00;97.80;;;;;;5021668;28;20029;-83
2021/03/17 04:09:52;;;;;;;7.63;4.10;;;5.00;97.70;;;;;;5038212;28;20071;-82
2021/03/17 04:12:21;;;;;;;6.50;3.63;;;5.00;97.80;;;;;;5022941;28;20033;-83
2021/03/17 04:14:54;;;;;;;7.37;3.83;;;5.10;97.60;;;;;;5022991;28;20482;-82
2021/03/17 04:17:24;;;;;;;8.27;3.50;;;5.20;97.70;;;;;;5023276;28;20474;-83
2021/03/17 04:19:56;;;;;;;6.63;4.00;;;5.20;97.70;;;;;;5022916;28;20077;-82
2021/03/17 04:22:30;;;;;;;7.03;4.03;;;5.20;97.70;;;;;;5024130;28;20068;-83
2021/03/17 04:24:59;;;;;;;6.40;4.13;;;5.20;97.70;;;;;;5023510;28;20064;-83
2021/03/17 04:27:26;;;;;;;6.28;4.03;;;5.20;97.90;;;;;;5041606;28;20030;-83
2021/03/17 04:29:53;;;;;;;6.90;4.63;;;5.10;97.90;;;;;;5023231;28;20040;-83
2021/03/17 04:32:20;;;;;;;6.73;4.47;;;5.00;98.10;;;;;;5024530;28;20021;-82
2021/03/17 04:34:47;;;;;;;8.43;4.97;;;5.10;98.20;;;;;;5040524;28;20022;-82
2021/03/17 04:37:14;;;;;;;7.43;4.87;;;5.00;98.10;;;;;;5024337;28;20032;-83
2021/03/17 04:39:40;;;;;;;8.00;5.07;;;5.00;98.10;;;;;;5023369;28;20051;-82
2021/03/17 04:42:08;;;;;;;7.77;5.30;;;5.00;98.30;;;;;;5024303;28;20037;-82
2021/03/17 04:44:34;;;;;;;8.17;5.67;;;5.00;98.40;;;;;;5023655;28;20025;-83
2021/03/17 04:47:01;;;;;;;10.57;5.77;;;5.00;98.40;;;;;;5041776;28;20044;-82
2021/03/17 04:49:27;;;;;;;18.77;8.53;;;5.00;98.40;;;;;;5042157;28;20021;-82
2021/03/17 04:51:54;;;;;;;16.80;8.13;;;4.90;98.40;;;;;;5023914;28;20152;-82
2021/03/17 04:54:20;;;;;;;16.57;8.30;;;4.90;98.60;;;;;;5023940;28;20029;-82
2021/03/17 04:56:47;;;;;;;15.47;7.20;;;4.90;98.60;;;;;;5040291;28;20037;-84
2021/03/17 04:59:18;;;;;;;10.63;6.27;;;5.00;98.50;;;;;;5023552;28;20033;-83
2021/03/17 05:01:45;;;;;;;13.43;7.53;;;5.00;98.70;;;;;;5023472;28;20116;-82
2021/03/17 05:04:12;;;;;;;12.77;7.63;;;4.90;98.80;;;;;;5023422;28;20026;-82
2021/03/17 05:06:41;;;;;;;13.37;7.17;;;5.00;98.50;;;;;;5039983;28;20120;-82
2021/03/17 05:09:09;;;;;;;12.57;7.30;;;5.00;98.40;;;;;;5041388;28;20032;-83
2021/03/17 05:11:37;;;;;;;11.07;6.65;;;5.00;98.30;;;;;;5042198;28;20101;-82
2021/03/17 05:14:02;;;;;;;10.53;6.20;;;5.10;98.70;;;;;;5039815;28;20034;-82
2021/03/17 05:16:28;;;;;;;10.13;6.37;;;5.20;98.40;;;;;;5024038;28;20543;-83
2021/03/17 05:18:58;;;;;;;10.87;6.53;;;5.10;98.40;;;;;;5040613;28;20017;-82
2021/03/17 05:21:24;;;;;;;8.90;6.50;;;5.20;98.50;;;;;;5021426;28;20032;-82
2021/03/17 05:23:50;;;;;;;9.47;6.77;;;5.10;98.50;;;;;;5040197;28;20037;-82
2021/03/17 05:26:17;;;;;;;10.10;7.07;;;5.10;98.50;;;;;;5038723;28;20108;-82
2021/03/17 05:28:43;;;;;;;9.83;6.50;;;5.10;98.50;;;;;;5022115;28;20393;-82
2021/03/17 05:31:09;;;;;;;10.40;7.03;;;5.10;98.60;;;;;;5039295;28;20061;-83
2021/03/17 05:33:36;;;;;;;10.07;6.97;;;5.10;98.50;;;;;;5040479;28;20034;-82
2021/03/17 05:36:03;;;;;;;17.70;10.40;;;5.00;98.70;;;;;;5021962;28;20056;-82
2021/03/17 05:38:28;;;;;;;19.73;9.87;;;5.00;98.80;;;;;;5021380;28;20033;-82
2021/03/17 05:40:55;;;;;;;13.57;8.90;;;5.00;99.10;;;;;;5037072;28;20036;-82
2021/03/17 05:43:22;;;;;;;15.87;9.43;;;5.00;99.00;;;;;;5021530;28;20025;-82
2021/03/17 05:45:48;;;;;;;14.50;8.63;;;5.10;98.90;;;;;;5021079;28;20040;-82
2021/03/17 05:48:16;;;;;;;15.63;8.47;;;5.10;99.00;;;;;;5020842;28;20030;-82
2021/03/17 05:50:42;;;;;;;15.43;8.57;;;5.10;99.00;;;;;;5020007;28;20463;-82
2021/03/17 05:53:09;;;;;;;14.37;8.77;;;5.10;99.20;;;;;;5039719;28;20022;-82
2021/03/17 05:55:36;;;;;;;15.97;9.30;;;5.20;98.90;;;;;;5021629;28;20033;-82
2021/03/17 05:58:01;;;;;;;16.43;9.50;;;5.20;99.00;;;;;;5021798;28;20029;-83
2021/03/17 06:00:27;;;;;;;16.17;9.17;;;5.20;99.00;;;;;;5020939;28;20050;-82
2021/03/17 06:02:53;;;;;;;15.60;9.07;;;5.30;98.90;;;;;;5020727;28;20033;-82
2021/03/17 06:05:21;;;;;;;17.70;9.40;;;5.30;99.10;;;;;;5039712;28;20033;-82
2021/03/17 06:08:05;;;;;;;18.53;9.97;;;5.30;98.80;;;;;;5021592;28;20437;-83
2021/03/17 06:10:33;;;;;;;17.37;9.93;;;5.30;98.80;;;;;;5019912;28;20486;-83
2021/03/17 06:13:02;;;;;;;19.17;10.40;;;5.30;99.10;;;;;;5040009;28;20025;-82
2021/03/17 06:15:29;;;;;;;16.75;9.70;;;5.40;99.00;;;;;;5022929;28;20176;-82
2021/03/17 06:18:01;;;;;;;17.43;10.30;;;5.40;99.20;;;;;;5040783;28;20085;-84
2021/03/17 06:20:28;;;;;;;21.67;12.07;;;5.30;98.80;;;;;;5042358;28;20021;-84
2021/03/17 06:22:54;;;;;;;28.07;14.40;;;5.30;98.90;;;;;;5042857;28;20026;-83
2021/03/17 06:25:20;;;;;;;30.17;15.33;;;5.30;98.70;;;;;;5040679;28;20022;-82
2021/03/17 06:27:46;;;;;;;29.00;15.40;;;5.20;98.30;;;;;;5042649;28;20031;-83
2021/03/17 06:30:13;;;;;;;32.33;14.60;;;5.30;98.60;;;;;;5042567;28;20069;-83
2021/03/17 06:32:39;;;;;;;24.17;13.80;;;5.30;99.00;;;;;;5042099;28;20025;-84
2021/03/17 06:35:25;;;;;;;22.17;12.83;;;5.30;98.60;;;;;;5041546;28;20030;-83
2021/03/17 06:37:52;;;;;;;25.10;12.60;;;5.30;98.70;;;;;;5042399;28;20033;-83
2021/03/17 06:40:30;;;;;;;21.43;11.70;;;5.40;98.60;;;;;;5042294;28;20018;-84
2021/03/17 06:43:04;;;;;;;19.13;10.85;;;5.20;98.30;;;;;;5023612;28;20079;-83
2021/03/17 06:45:48;;;;;;;24.60;12.83;;;5.30;98.20;;;;;;5042330;28;20032;-83
2021/03/17 06:48:32;;;;;;;22.13;10.37;;;5.30;98.50;;;;;;5042183;28;20056;-84
2021/03/17 06:51:18;;;;;;;16.67;8.13;;;5.30;97.80;;;;;;5041612;28;20021;-83
2021/03/17 06:53:45;;;;;;;11.83;4.87;;;5.20;97.40;;;;;;5021000;28;20108;-83
2021/03/17 06:56:13;;;;;;;12.87;5.30;;;5.00;96.90;;;;;;5040701;28;20048;-84
2021/03/17 06:58:44;;;;;;;14.07;5.67;;;5.00;97.30;;;;;;5041053;28;20029;-84
2021/03/17 07:01:27;;;;;;;10.47;4.43;;;5.10;97.40;;;;;;5023319;28;20045;-83
2021/03/17 07:03:57;;;;;;;11.33;4.67;;;5.10;97.60;;;;;;5021268;28;20398;-83
2021/03/17 07:06:24;;;;;;;11.10;4.50;;;5.20;97.70;;;;;;5037570;28;20152;-84
2021/03/17 07:08:50;;;;;;;9.83;4.07;;;5.20;97.70;;;;;;5020779;28;20043;-83
2021/03/17 07:11:25;;;;;;;7.90;4.27;;;5.20;97.50;;;;;;5037775;28;20025;-83
2021/03/17 07:14:24;;;;;;;10.73;4.20;;;5.10;97.60;;;;;;5015225;28;20045;-84
2021/03/17 07:16:50;;;;;;;6.40;3.72;;;5.20;97.60;;;;;;5063812;22;20044;-85
2021/03/17 07:19:36;;;;;;;9.37;4.20;;;5.20;97.80;;;;;;5036077;28;20048;-85
2021/03/17 07:22:09;;;;;;;6.20;3.90;;;5.30;97.80;;;;;;5035888;28;20021;-87
2021/03/17 07:24:39;;;;;;;6.17;3.73;;;5.30;97.80;;;;;;5036036;28;20021;-86
2021/03/17 07:27:20;;;;;;;5.33;3.93;;;5.20;97.50;;;;;;5055348;28;20036;-85
2021/03/17 07:30:06;;;;;;;5.70;3.63;;;5.20;98.10;;;;;;5055614;28;20473;-87
2021/03/17 07:32:54;;;;;;;6.47;3.67;;;5.20;97.70;;;;;;5055317;28;20412;-85
2021/03/17 07:35:24;;;;;;;5.20;3.50;;;5.20;96.80;;;;;;5055437;28;20060;-85
2021/03/17 07:38:02;;;;;;;7.47;3.80;;;5.20;97.50;;;;;;5074039;28;20028;-87
2021/03/17 07:40:29;;;;;;;6.90;3.30;;;5.20;97.40;;;;;;5055740;28;20033;-86
2021/03/17 07:42:56;;;;;;;6.77;3.53;;;5.20;96.70;;;;;;5077312;28;20074;-85
2021/03/17 07:45:22;;;;;;;6.23;3.20;;;5.20;96.90;;;;;;5077789;28;20078;-85
2021/03/17 07:47:49;;;;;;;6.07;3.63;;;5.30;96.70;;;;;;5059206;28;20025;-85
2021/03/17 07:50:15;;;;;;;4.40;2.93;;;5.30;96.80;;;;;;5059693;28;20078;-87
2021/03/17 07:52:43;;;;;;;4.27;2.97;;;5.30;96.80;;;;;;5077528;28;20029;-86
2021/03/17 07:55:10;;;;;;;5.23;2.50;;;5.40;96.70;;;;;;5059163;28;20031;-85
2021/03/17 07:57:37;;;;;;;5.73;3.27;;;5.50;96.80;;;;;;5059301;28;20488;-87
2021/03/17 08:00:04;;;;;;;8.03;3.13;;;5.60;96.60;;;;;;5059211;28;20432;-86
2021/03/17 08:02:31;;;;;;;4.33;2.50;;;5.60;96.50;;;;;;5059197;28;20025;-85
2021/03/17 08:04:58;;;;;;;5.33;2.80;;;5.60;96.50;;;;;;5059202;28;20024;-87
2021/03/17 08:07:25;;;;;;;6.70;2.90;;;5.60;96.30;;;;;;5059098;28;20557;-88
2021/03/17 08:09:52;;;;;;;4.23;2.40;;;5.70;96.10;;;;;;5058754;28;20033;-87
2021/03/17 08:12:19;;;;;;;5.23;2.53;;;5.70;96.20;;;;;;5058946;28;20017;-86
2021/03/17 08:14:45;;;;;;;5.70;2.70;;;5.70;95.40;;;;;;5076836;28;20020;-88
2021/03/17 08:17:33;;;;;;;4.73;1.87;;;5.70;95.70;;;;;;5058507;28;20062;-87
2021/03/17 08:20:17;;;;;;;5.83;3.00;;;5.60;94.30;;;;;;5059244;28;20032;-88
2021/03/17 08:22:44;;;;;;;6.90;2.20;;;5.70;94.30;;;;;;5059141;28;20370;-86
2021/03/17 08:25:11;;;;;;;6.00;2.57;;;5.70;93.50;;;;;;5059643;28;20020;-86
2021/03/17 08:27:37;;;;;;;8.43;3.13;;;5.70;93.60;;;;;;5059918;28;20024;-85
2021/03/17 08:30:13;;;;;;;9.27;2.07;;;5.70;93.30;;;;;;5058928;28;20066;-85
2021/03/17 08:32:59;;;;;;;4.20;1.37;;;5.60;92.20;;;;;;5058717;28;20024;-86
2021/03/17 08:36:00;;;;;;;6.80;1.73;;;5.50;92.40;;;;;;5058694;28;20017;-86
2021/03/17 08:38:42;;;;;;;4.67;2.13;;;5.50;92.50;;;;;;5076451;28;20027;-85
2021/03/17 08:41:08;;;;;;;3.97;1.87;;;5.60;92.60;;;;;;5076545;28;20064;-85
2021/03/17 08:43:37;;;;;;;4.77;2.03;;;5.70;93.00;;;;;;5059009;28;20446;-86
2021/03/17 08:46:13;;;;;;;3.70;1.63;;;5.80;93.10;;;;;;5058800;28;20021;-85
2021/03/17 08:49:05;;;;;;;5.67;1.60;;;5.80;91.20;;;;;;5058668;28;20028;-85
2021/03/17 08:51:57;;;;;;;4.23;1.57;;;5.60;91.00;;;;;;5058988;28;20505;-85
2021/03/17 08:54:35;;;;;;;3.83;1.50;;;5.70;91.20;;;;;;5058058;28;20021;-86
2021/03/17 08:57:08;;;;;;;4.73;1.50;;;5.70;91.60;;;;;;5058414;28;20028;-85
2021/03/17 08:59:39;;;;;;;3.70;1.40;;;5.70;91.00;;;;;;5058616;28;20035;-89
2021/03/17 09:02:16;;;;;;;5.40;1.80;;;5.60;91.70;;;;;;5076166;28;20035;-86
2021/03/17 09:04:46;;;;;;;3.60;1.53;;;5.80;91.90;;;;;;5058254;28;20032;-86
2021/03/17 09:07:12;;;;;;;5.37;2.13;;;5.90;92.10;;;;;;5058209;28;20051;-86
2021/03/17 09:09:49;;;;;;;5.23;1.70;;;5.80;92.00;;;;;;5058209;28;20526;-88
2021/03/17 09:12:16;;;;;;;4.63;1.70;;;5.80;92.00;;;;;;5058831;28;20372;-85
2021/03/17 09:14:42;;;;;;;7.10;2.20;;;5.90;92.60;;;;;;5058224;28;20052;-87
2021/03/17 09:17:14;;;;;;;6.57;1.63;;;5.90;92.70;;;;;;5076014;28;20039;-86
2021/03/17 09:19:58;;;;;;;7.40;2.00;;;5.90;91.40;;;;;;5058644;28;20059;-85
2021/03/17 09:22:37;;;;;;;6.23;1.97;;;5.70;91.70;;;;;;5077415;28;20058;-85
2021/03/17 09:25:19;;;;;;;7.10;1.85;;;5.80;92.20;;;;;;5059317;28;20054;-85
2021/03/17 09:28:04;;;;;;;5.00;1.60;;;5.70;91.50;;;;;;5058868;28;20017;-86
2021/03/17 09:31:09;;;;;;;6.50;1.97;;;5.70;91.30;;;;;;5059561;28;20436;-85
2021/03/17 09:33:43;;;;;;;7.73;1.67;;;5.70;91.20;;;;;;5075781;28;20150;-86
2021/03/17 09:36:13;;;;;;;4.90;1.40;;;5.70;91.00;;;;;;5058413;28;20024;-86
2021/03/17 09:38:44;;;;;;;3.93;1.20;;;5.60;91.00;;;;;;5076416;28;20050;-85
2021/03/17 09:41:19;;;;;;;6.67;1.53;;;5.70;91.30;;;;;;5075695;28;20024;-85
2021/03/17 09:43:50;;;;;;;7.23;1.70;;;5.80;91.60;;;;;;5075882;28;20561;-86
2021/03/17 09:46:43;;;;;;;5.27;1.67;;;5.90;92.00;;;;;;5075443;28;20529;-86
2021/03/17 09:49:17;;;;;;;4.90;1.60;;;5.90;91.90;;;;;;5055187;28;20119;-86
2021/03/17 09:51:47;;;;;;;5.07;1.90;;;5.90;91.40;;;;;;5056974;28;20027;-86
2021/03/17 09:54:15;;;;;;;5.47;1.80;;;5.90;91.90;;;;;;5059716;28;20055;-86
2021/03/17 09:56:48;;;;;;;6.47;1.57;;;5.80;92.60;;;;;;5057164;28;20036;-85
2021/03/17 09:59:28;;;;;;;4.20;1.50;;;5.50;92.30;;;;;;5057405;28;20021;-85
2021/03/17 10:02:02;;;;;;;4.40;1.77;;;5.60;93.10;;;;;;5057231;28;20392;-86
2021/03/17 10:04:35;;;;;;;5.60;1.20;;;5.70;93.70;;;;;;5056643;28;20047;-85
2021/03/17 10:07:03;;;;;;;4.80;1.30;;;5.70;92.90;;;;;;5056608;28;20120;-86
2021/03/17 10:09:33;;;;;;;5.97;1.50;;;5.60;92.30;;;;;;5056892;28;20101;-85
2021/03/17 10:12:12;;;;;;;7.20;1.40;;;5.60;92.70;;;;;;5057218;28;20032;-85
2021/03/17 10:14:42;;;;;;;4.80;1.60;;;5.60;92.60;;;;;;5057035;28;20359;-85
2021/03/17 10:17:08;;;;;;;6.93;2.20;;;5.60;92.70;;;;;;5056514;28;20043;-86
2021/03/17 10:19:35;;;;;;;6.60;1.70;;;5.70;92.60;;;;;;5056689;28;20397;-87
2021/03/17 10:22:02;;;;;;;5.83;2.00;;;5.80;92.90;;;;;;5074554;28;20111;-86
2021/03/17 10:24:37;;;;;;;6.13;1.80;;;5.90;93.10;;;;;;5056332;28;20070;-87
2021/03/17 10:27:05;;;;;;;5.40;1.60;;;6.00;92.70;;;;;;5056382;28;20067;-86
2021/03/17 10:29:31;;;;;;;4.17;1.07;;;6.00;91.90;;;;;;5056124;28;20042;-86
2021/03/17 10:31:57;;;;;;;6.03;1.17;;;6.00;90.00;;;;;;5056399;28;20055;-86
2021/03/17 10:34:25;;;;;;;4.83;1.00;;;6.00;89.60;;;;;;5055956;28;20021;-85
2021/03/17 10:36:53;;;;;;;4.73;1.07;;;5.90;88.20;;;;;;5074123;28;20028;-86
2021/03/17 10:39:24;;;;;;;4.50;1.40;;;5.90;87.30;;;;;;5056175;28;20396;-85
2021/03/17 10:41:50;;;;;;;4.70;0.90;;;5.90;88.30;;;;;;5074047;28;20032;-85
2021/03/17 10:44:21;;;;;;;7.43;1.10;;;5.90;88.80;;;;;;5055974;28;20024;-86
2021/03/17 10:47:07;;;;;;;2.87;0.90;;;5.90;88.10;;;;;;5055483;28;20021;-85
2021/03/17 10:49:38;;;;;;;2.97;1.20;;;5.90;88.30;;;;;;5055929;28;20017;-86
2021/03/17 10:52:04;;;;;;;8.03;1.30;;;6.00;88.80;;;;;;5055814;28;20020;-85
2021/03/17 10:54:36;;;;;;;5.30;1.40;;;6.00;87.20;;;;;;5056570;28;20111;-85
2021/03/17 10:57:03;;;;;;;2.97;0.90;;;6.00;85.60;;;;;;5055672;28;20082;-85
2021/03/17 10:59:33;;;;;;;2.40;0.87;;;5.90;87.30;;;;;;5055520;28;20392;-87
2021/03/17 11:02:20;;;;;;;3.57;0.90;;;5.90;84.90;;;;;;5056284;28;20543;-89
2021/03/17 11:05:08;;;;;;;5.90;1.10;;;6.00;85.50;;;;;;5055783;28;20075;-85
2021/03/17 11:07:56;;;;;;;4.57;1.20;;;6.10;84.70;;;;;;5055475;28;20029;-86
2021/03/17 11:10:34;;;;;;;8.13;1.10;;;6.10;85.70;;;;;;5056650;28;20020;-86
2021/03/17 11:13:09;;;;;;;5.27;1.00;;;6.20;86.40;;;;;;5056093;28;20032;-85
2021/03/17 11:15:41;;;;;;;5.77;1.30;;;6.20;83.30;;;;;;5073111;28;20047;-87
2021/03/17 11:18:08;;;;;;;4.90;1.00;;;6.20;85.90;;;;;;5055678;28;20036;-86
2021/03/17 11:20:42;;;;;;;4.80;1.17;;;6.20;86.30;;;;;;5055559;28;20040;-85
2021/03/17 11:23:48;;;;;;;3.00;1.00;;;6.20;86.70;;;;;;5054985;28;20028;-85
2021/03/17 11:26:33;;;;;;;5.73;1.50;;;6.10;86.50;;;;;;5059329;28;20512;-87
2021/03/17 11:29:01;;;;;;;4.87;1.80;;;6.00;88.00;;;;;;5055009;28;20052;-86
2021/03/17 11:31:37;;;;;;;6.13;1.77;;;6.00;87.10;;;;;;5055533;28;20032;-86
2021/03/17 11:34:07;;;;;;;3.40;1.33;;;6.10;88.70;;;;;;5073290;28;20017;-86
2021/03/17 11:36:33;;;;;;;7.50;1.50;;;6.20;87.20;;;;;;5055266;28;20025;-85
2021/03/17 11:39:02;;;;;;;4.73;1.30;;;6.20;86.60;;;;;;5073258;28;20027;-86
2021/03/17 11:41:28;;;;;;;5.13;1.25;;;6.20;84.90;;;;;;5074132;28;20021;-86
2021/03/17 11:43:54;;;;;;;4.83;1.53;;;6.00;82.10;;;;;;5055674;28;20031;-85
2021/03/17 11:46:20;;;;;;;6.90;1.17;;;6.10;84.10;;;;;;5055524;28;20024;-86
2021/03/17 11:48:46;;;;;;;6.17;1.53;;;6.10;84.20;;;;;;5073223;28;20032;-86
2021/03/17 11:51:12;;;;;;;9.70;1.50;;;6.10;85.30;;;;;;5055956;28;20029;-87
2021/03/17 11:53:38;;;;;;;4.43;1.50;;;6.10;84.50;;;;;;5074012;28;20058;-86
2021/03/17 11:56:06;;;;;;;3.20;1.23;;;6.00;83.40;;;;;;5055497;28;20025;-85
2021/03/17 11:58:32;;;;;;;5.23;1.10;;;6.00;84.00;;;;;;5055528;28;20040;-85
2021/03/17 12:00:58;;;;;;;3.67;1.23;;;6.00;83.30;;;;;;5055684;28;20038;-86
2021/03/17 12:03:23;;;;;;;3.30;1.13;;;6.00;82.30;;;;;;5055308;28;20064;-86
2021/03/17 12:05:50;;;;;;;8.87;1.50;;;6.00;82.00;;;;;;5055463;28;20028;-85
2021/03/17 12:08:16;;;;;;;6.03;1.67;;;6.00;82.20;;;;;;5055139;28;20028;-85
2021/03/17 12:10:42;;;;;;;5.77;1.40;;;6.00;82.50;;;;;;5054951;28;20071;-87
2021/03/17 12:13:08;;;;;;;4.83;1.20;;;6.00;80.80;;;;;;5054841;28;20079;-85
2021/03/17 12:15:34;;;;;;;5.80;1.50;;;6.10;80.50;;;;;;5071721;28;20032;-86
2021/03/17 12:18:01;;;;;;;5.30;1.00;;;6.10;79.90;;;;;;5055581;28;20032;-85
2021/03/17 12:20:28;;;;;;;5.00;1.00;;;6.30;77.70;;;;;;5055613;28;20052;-85
2021/03/17 12:22:54;;;;;;;4.57;1.10;;;6.30;77.60;;;;;;5054890;28;20062;-86
2021/03/17 12:25:20;;;;;;;5.87;1.13;;;6.50;76.90;;;;;;5054795;28;20424;-85
2021/03/17 12:27:47;;;;;;;3.37;0.97;;;6.60;75.10;;;;;;5057028;28;20033;-86
2021/03/17 12:30:16;;;;;;;7.83;1.40;;;6.60;74.10;;;;;;5058572;28;20028;-85
2021/03/17 12:32:42;;;;;;;3.28;1.00;;;6.50;71.10;;;;;;5058637;28;20020;-86
2021/03/17 12:35:10;;;;;;;4.93;1.20;;;6.60;73.50;;;;;;5058123;28;20028;-85
2021/03/17 12:37:37;;;;;;;6.60;1.10;;;6.60;73.10;;;;;;5076067;28;20024;-85
2021/03/17 12:40:08;;;;;;;5.17;1.37;;;6.60;71.40;;;;;;5058164;28;20112;-86
2021/03/17 12:42:34;;;;;;;5.97;1.13;;;6.60;72.30;;;;;;5076093;28;20044;-86
2021/03/17 12:45:01;;;;;;;6.17;1.20;;;6.70;73.00;;;;;;5057417;28;20032;-86
2021/03/17 12:47:27;;;;;;;4.00;0.90;;;6.80;72.40;;;;;;5057345;28;20032;-86
2021/03/17 12:49:53;;;;;;;4.50;1.30;;;6.90;72.90;;;;;;5056690;28;20481;-85
2021/03/17 12:52:19;;;;;;;5.77;1.77;;;6.80;72.30;;;;;;5057258;28;20050;-86
2021/03/17 12:54:44;;;;;;;6.27;1.07;;;6.90;72.60;;;;;;5074912;28;20021;-86
2021/03/17 12:57:10;;;;;;;4.97;1.00;;;6.90;72.80;;;;;;5076005;28;20376;-86
2021/03/17 12:59:36;;;;;;;6.80;1.00;;;6.90;70.40;;;;;;5074453;28;20119;-86
2021/03/17 13:02:02;;;;;;;6.47;1.20;;;6.90;70.10;;;;;;5057656;28;20025;-86
2021/03/17 13:04:27;;;;;;;3.40;1.00;;;6.90;70.10;;;;;;5058208;28;20035;-85
2021/03/17 13:06:53;;;;;;;3.70;1.10;;;6.90;72.80;;;;;;5074836;28;20036;-86
2021/03/17 13:09:19;;;;;;;6.00;1.20;;;7.00;70.00;;;;;;5056362;28;20016;-86